Bookmark and Share
Track history (hours):
 

Ripple Effect

Last reported at 2012-Jul-31 18:33 UTC. Time now 2014-Apr-23 09:39 UTC.
Position N 54°19' W 130°18'.
Warning: this ship's position is years out of date!

Length 10 m.

Type: Pleasure craft. MMSI: 316009045.

NotesDate/timePositionNaut miles runAvg speedWind from/ knotsBaromVisibWave heightAir tempDewpointWater temp
2012-Jul-31 18:33N 54°19' W 130°18'0 0.5
2012-Jul-31 17:31N 54°19' W 130°19'0 0.0
2012-Jul-31 16:30N 54°19' W 130°19'0 0.0
2012-Jul-31 15:31N 54°19' W 130°19'0 0.0
2012-Jul-31 14:28N 54°19' W 130°19'0 0.0
2012-Jul-31 13:31N 54°19' W 130°19'0 0.0
2012-Jul-31 12:33N 54°19' W 130°19'0 0.0
2012-Jul-31 09:27N 54°19' W 130°19'0 0.0
2012-Jul-31 08:32N 54°19' W 130°19'0 0.0
2012-Jul-31 07:29N 54°19' W 130°19'0 0.0
2012-Jul-31 06:31N 54°19' W 130°19'0 0.0
2012-Jul-31 05:31N 54°19' W 130°19'0 0.0
2012-Jul-31 04:34N 54°19' W 130°19'0 0.0
2012-Jul-31 03:31N 54°19' W 130°19'0 0.0
2012-Jul-31 02:29N 54°19' W 130°19'0 0.0
2012-Jul-31 01:31N 54°19' W 130°19'0 0.0
2012-Jul-31 00:31N 54°19' W 130°19'0 0.0
2012-Jul-30 23:25N 54°19' W 130°19'0 0.0
2012-Jul-30 19:31N 54°19' W 130°19'0 0.0
2012-Jul-30 18:31N 54°19' W 130°19'0 0.0
2012-Jul-30 17:31N 54°19' W 130°19'0 0.0
2012-Jul-30 16:31N 54°19' W 130°19'0 0.0
2012-Jul-30 15:29N 54°19' W 130°19'0 0.0
2012-Jul-30 14:28N 54°19' W 130°19'0 0.0
2012-Jul-30 13:32N 54°19' W 130°19'0 0.0
2012-Jul-30 04:31N 54°19' W 130°19'0 0.0
2012-Jul-30 03:31N 54°19' W 130°19'0 0.0
2012-Jul-30 02:31N 54°19' W 130°19'0 0.0
2012-Jul-30 01:28N 54°19' W 130°19'0 0.0
2012-Jul-30 00:31N 54°19' W 130°19'0 0.0
2012-Jul-29 23:28N 54°19' W 130°19'0 0.0
2012-Jul-29 22:32N 54°19' W 130°19'0 0.0
2012-Jul-29 21:28N 54°19' W 130°19'0 0.0
2012-Jul-29 20:28N 54°19' W 130°19'0 0.0
2012-Jul-29 19:34N 54°19' W 130°19'0 0.0
2012-Jul-29 18:25N 54°19' W 130°19'0 0.0
2012-Jul-29 17:32N 54°19' W 130°19'0 0.0
2012-Jul-29 16:31N 54°19' W 130°19'0 0.0
2012-Jul-29 14:30N 54°19' W 130°19'0 0.0
2012-Jul-29 13:31N 54°19' W 130°19'0 0.0
2012-Jul-29 12:32N 54°19' W 130°19'0 0.0
2012-Jul-29 11:32N 54°19' W 130°19'0 0.0
2012-Jul-29 10:34N 54°19' W 130°19'0 0.0
2012-Jul-29 08:28N 54°19' W 130°19'0 0.0
2012-Jul-29 07:28N 54°19' W 130°19'0 0.0
2012-Jul-29 05:28N 54°19' W 130°19'0 0.0
2012-Jul-29 01:31N 54°19' W 130°19'9 1.2
2012-Jul-28 17:28N 54°21' W 130°35'910.0
2012-Jul-28 16:32N 54°19' W 130°19'0 0.0
2012-Jul-28 15:32N 54°19' W 130°19'0 0.0
2012-Jul-28 14:31N 54°19' W 130°19'0 0.0
2012-Jul-28 13:29N 54°19' W 130°19'0 0.0
2012-Jul-28 12:28N 54°19' W 130°19'0 0.0
2012-Jul-28 11:32N 54°19' W 130°19'0 0.0
2012-Jul-28 10:31N 54°19' W 130°19'0 0.0
2012-Jul-28 09:32N 54°19' W 130°19'0 0.0
2012-Jul-28 08:31N 54°19' W 130°19'0 0.0
2012-Jul-28 07:32N 54°19' W 130°19'0 0.0
2012-Jul-28 06:29N 54°19' W 130°19'0 0.0
2012-Jul-28 05:29N 54°19' W 130°19'0 0.0
2012-Jul-28 04:35N 54°19' W 130°19'0 0.0
2012-Jul-28 03:31N 54°19' W 130°19'0 0.0
2012-Jul-28 02:31N 54°19' W 130°19'0 0.0
2012-Jul-28 01:32N 54°19' W 130°19'0 0.0
2012-Jul-28 00:31N 54°19' W 130°19'0 0.0
2012-Jul-27 23:31N 54°19' W 130°19'0 0.0
2012-Jul-27 22:32N 54°19' W 130°19'0 0.0
2012-Jul-27 21:26N 54°19' W 130°19'0 0.0
2012-Jul-27 19:32N 54°19' W 130°19'0 0.0
2012-Jul-27 12:25N 54°19' W 130°19'0 0.0
2012-Jul-27 10:32N 54°19' W 130°19'0 0.0
2012-Jul-27 09:26N 54°19' W 130°19'0 0.0
2012-Jul-27 08:25N 54°19' W 130°19'0 0.0
2012-Jul-27 05:28N 54°19' W 130°19'0 0.0
2012-Jul-27 04:28N 54°19' W 130°19'0 0.0
2012-Jul-27 02:28N 54°19' W 130°19'4 1.5
2012-Jul-26 23:34N 54°20' W 130°27'1 0.1
2012-Jul-26 14:33N 54°20' W 130°25'4 4.2
2012-Jul-26 13:33N 54°20' W 130°18'1 0.9
2012-Jul-26 12:30N 54°19' W 130°19'0 0.0
2012-Jul-26 11:32N 54°19' W 130°19'0 0.0
2012-Jul-26 09:29N 54°19' W 130°19'0 0.0
2012-Jul-26 08:28N 54°19' W 130°19'0 0.0
2012-Jul-26 07:28N 54°19' W 130°19'0 0.0
2012-Jul-26 06:32N 54°19' W 130°19'0 0.0
2012-Jul-26 05:32N 54°19' W 130°19'0 0.0
2012-Jul-26 03:29N 54°19' W 130°19'0 0.0
2012-Jul-26 02:32N 54°19' W 130°19'0 0.0
2012-Jul-26 01:31N 54°19' W 130°19'0 0.0
2012-Jul-26 00:28N 54°19' W 130°19'0 0.0
2012-Jul-25 23:25N 54°19' W 130°19'0 0.0
2012-Jul-25 22:29N 54°19' W 130°19'0 0.0
2012-Jul-25 21:32N 54°19' W 130°19'3 3.1
2012-Jul-25 20:33N 54°19' W 130°24'3 0.5
2012-Jul-25 13:33N 54°20' W 130°29'6 5.6
2012-Jul-25 12:28N 54°19' W 130°19'0 0.0
2012-Jul-25 11:28N 54°19' W 130°19'0 0.0
2012-Jul-25 10:36N 54°19' W 130°19'0 0.0
2012-Jul-25 09:28N 54°19' W 130°19'0 0.0
2012-Jul-25 08:33N 54°19' W 130°19'0 0.0
2012-Jul-25 07:33N 54°19' W 130°19'0 0.0
2012-Jul-25 06:30N 54°19' W 130°19'0 0.0
2012-Jul-25 05:29N 54°19' W 130°19'0 0.0
2012-Jul-25 04:34N 54°19' W 130°19'0 0.0
2012-Jul-24 23:31N 54°19' W 130°19'0 0.2
2012-Jul-24 22:33N 54°19' W 130°19'4 0.6
2012-Jul-24 15:33N 54°20' W 130°26'4 4.3
2012-Jul-24 14:32N 54°19' W 130°19'0 0.0
2012-Jul-24 13:29N 54°19' W 130°19'0 0.0
2012-Jul-24 12:31N 54°19' W 130°19'0 0.0
2012-Jul-24 11:33N 54°19' W 130°19'0 0.0
2012-Jul-24 10:56N 54°19' W 130°19'0 0.0
2012-Jul-24 08:27N 54°19' W 130°19'0 0.0
2012-Jul-24 07:32N 54°19' W 130°19'0 0.0
2012-Jul-24 06:29N 54°19' W 130°19'0 0.0
2012-Jul-24 05:32N 54°19' W 130°19'0 0.0
2012-Jul-24 04:34N 54°19' W 130°19'0 0.0
2012-Jul-24 03:32N 54°19' W 130°19'0 0.0
2012-Jul-24 02:26N 54°19' W 130°19'0 0.0
2012-Jul-24 00:25N 54°19' W 130°19'0 0.0
2012-Jul-23 23:31N 54°19' W 130°19'0 0.0
2012-Jul-23 22:31N 54°19' W 130°19'0 0.0
2012-Jul-23 21:29N 54°19' W 130°19'0 0.0
2012-Jul-23 20:26N 54°19' W 130°19'0 0.0
2012-Jul-23 19:28N 54°19' W 130°19'0 0.0
2012-Jul-23 18:26N 54°19' W 130°19'  

Dump ship's entire track history

sailing weather and tide predictions

Ripple Effect — CFK9060 — position and weather